Time;durP1;ratioP1;P1;durP2;ratioP2;P2;SDS_P1;SDS_P2;PMS_P1;PMS_P2;Temp;Humidity;BMP_temperature;BMP_pressure;BME280_temperature;BME280_humidity;BME280_pressure;Samples;Min_cycle;Max_cycle;Signal;HPM_P1;HPM_P2
2020/12/22 00:06:29;;;;;;;0.30;0.10;;;11.60;99.90;;;;;;6730554;88;20189;-75
2020/12/22 00:16:37;;;;;;;1.08;0.10;;;11.80;99.90;;;;;;6734523;88;20244;-75
2020/12/22 00:26:37;;;;;;;0.22;0.10;;;11.70;99.90;;;;;;6735658;88;20214;-78
2020/12/22 00:36:38;;;;;;;0.70;0.20;;;11.80;99.90;;;;;;6725871;88;20651;-77
2020/12/22 00:46:39;;;;;;;0.57;0.20;;;11.90;99.90;;;;;;6725695;88;20523;-76
2020/12/22 00:56:39;;;;;;;0.20;0.10;;;11.80;99.90;;;;;;6721554;88;20225;-77
2020/12/22 01:06:40;;;;;;;0.93;0.20;;;11.80;99.90;;;;;;6723957;88;20721;-77
2020/12/22 01:16:41;;;;;;;0.73;0.10;;;11.80;99.90;;;;;;6720063;88;21163;-77
2020/12/22 01:26:41;;;;;;;0.80;0.20;;;11.80;99.90;;;;;;6723725;88;20225;-76
2020/12/22 01:36:42;;;;;;;0.15;0.10;;;12.00;99.90;;;;;;6723603;88;20216;-75
2020/12/22 01:46:47;;;;;;;0.40;0.10;;;12.10;99.90;;;;;;6724336;88;20222;-76
2020/12/22 01:56:48;;;;;;;0.20;0.10;;;12.30;99.90;;;;;;6723147;88;20222;-76
2020/12/22 02:06:48;;;;;;;0.20;0.10;;;12.40;99.90;;;;;;6723679;88;21121;-76
2020/12/22 02:16:49;;;;;;;0.10;0.10;;;12.60;99.90;;;;;;6722284;88;20214;-77
2020/12/22 02:26:49;;;;;;;0.45;0.10;;;12.60;99.90;;;;;;6739185;88;20594;-77
2020/12/22 02:36:50;;;;;;;0.68;0.10;;;12.70;99.90;;;;;;6738574;88;20287;-76
2020/12/22 02:46:50;;;;;;;0.88;0.20;;;12.90;99.90;;;;;;6737020;88;20205;-77
2020/12/22 02:56:51;;;;;;;1.15;0.20;;;13.00;99.90;;;;;;6730745;88;20224;-77
2020/12/22 03:06:52;;;;;;;0.60;0.20;;;12.90;99.90;;;;;;6732393;88;20184;-77
2020/12/22 03:16:53;;;;;;;0.93;0.20;;;13.20;99.90;;;;;;6740165;88;20835;-77
2020/12/22 03:26:53;;;;;;;0.57;0.20;;;13.50;99.90;;;;;;6739322;88;20234;-77
2020/12/22 03:36:54;;;;;;;0.80;0.20;;;13.70;99.90;;;;;;6740236;88;21116;-76
2020/12/22 03:46:54;;;;;;;0.22;0.10;;;14.00;99.90;;;;;;6739623;88;20204;-78
2020/12/22 03:56:55;;;;;;;0.25;0.10;;;14.00;99.90;;;;;;6739957;88;20856;-77
2020/12/22 04:06:55;;;;;;;0.30;0.10;;;14.20;99.90;;;;;;6739423;88;20575;-76
2020/12/22 04:16:56;;;;;;;0.20;0.10;;;14.20;99.90;;;;;;6739724;88;20608;-78
2020/12/22 04:26:57;;;;;;;0.30;0.10;;;14.30;99.90;;;;;;6739317;88;20505;-77
2020/12/22 04:36:57;;;;;;;1.25;0.20;;;14.20;99.90;;;;;;6739903;88;20992;-76
2020/12/22 04:46:59;;;;;;;0.30;0.10;;;14.40;99.90;;;;;;6739773;88;20203;-77
2020/12/22 04:57:02;;;;;;;0.62;0.20;;;14.30;99.90;;;;;;6746124;88;20676;-77
2020/12/22 05:07:03;;;;;;;0.25;0.10;;;14.40;99.90;;;;;;6739371;88;20398;-76
2020/12/22 05:17:04;;;;;;;0.30;0.20;;;14.50;99.90;;;;;;6751207;88;20702;-76
2020/12/22 05:27:06;;;;;;;0.32;0.20;;;14.30;99.90;;;;;;6729613;88;20191;-76
2020/12/22 05:37:08;;;;;;;0.20;0.10;;;14.50;99.90;;;;;;6718252;88;20178;-77
2020/12/22 05:47:09;;;;;;;0.30;0.10;;;14.50;99.90;;;;;;6722707;88;20201;-77
2020/12/22 05:57:09;;;;;;;0.30;0.10;;;14.70;99.90;;;;;;6723509;88;20189;-77
2020/12/22 06:07:10;;;;;;;0.10;0.10;;;14.60;99.90;;;;;;6723092;88;20685;-77
2020/12/22 06:17:11;;;;;;;0.50;0.20;;;14.60;99.90;;;;;;6722951;88;20552;-77
2020/12/22 06:27:13;;;;;;;0.98;0.10;;;14.70;99.90;;;;;;6723204;88;21189;-77
2020/12/22 06:37:14;;;;;;;1.00;0.20;;;14.80;99.90;;;;;;6723246;88;20178;-77
2020/12/22 06:47:14;;;;;;;0.30;0.10;;;14.70;99.90;;;;;;6721056;88;21043;-77
2020/12/22 06:57:45;;;;;;;0.30;0.17;;;14.70;99.90;;;;;;6723578;88;20184;-77
2020/12/22 07:07:57;;;;;;;0.40;0.20;;;14.80;99.90;;;;;;6720682;88;20206;-77
2020/12/22 07:18:06;;;;;;;0.30;0.10;;;14.80;99.90;;;;;;6721768;88;20192;-78
2020/12/22 07:28:08;;;;;;;0.35;0.20;;;14.80;99.90;;;;;;6723451;88;20198;-79
2020/12/22 07:38:10;;;;;;;0.50;0.10;;;14.70;99.90;;;;;;6722434;88;20217;-78
2020/12/22 07:48:11;;;;;;;3.17;0.30;;;14.80;99.90;;;;;;6722006;88;20200;-78
2020/12/22 07:58:13;;;;;;;2.42;0.20;;;14.80;99.90;;;;;;6720640;88;20234;-78
2020/12/22 08:08:13;;;;;;;0.52;0.20;;;14.90;99.90;;;;;;6737609;88;20360;-78
2020/12/22 08:18:14;;;;;;;2.05;0.20;;;14.90;99.90;;;;;;6742186;88;20276;-78
2020/12/22 08:28:25;;;;;;;0.45;0.20;;;14.90;99.90;;;;;;6743661;88;20214;-78
2020/12/22 08:38:27;;;;;;;2.75;0.60;;;15.00;99.90;;;;;;6741973;88;20183;-78
2020/12/22 08:48:47;;;;;;;2.08;0.30;;;15.00;99.90;;;;;;6737800;88;20742;-79
2020/12/22 08:58:51;;;;;;;1.60;0.20;;;14.90;99.90;;;;;;6730873;88;20608;-77
2020/12/22 09:08:58;;;;;;;0.62;0.20;;;14.80;99.90;;;;;;6729611;88;20701;-80
2020/12/22 09:19:05;;;;;;;0.85;0.30;;;14.70;99.90;;;;;;6725580;88;20596;-78
2020/12/22 09:29:06;;;;;;;0.75;0.25;;;14.40;99.90;;;;;;6727063;88;20193;-77
2020/12/22 09:39:06;;;;;;;0.90;0.22;;;14.60;99.90;;;;;;6738045;88;20817;-77
2020/12/22 09:49:07;;;;;;;3.03;0.43;;;14.70;99.90;;;;;;6733532;88;20199;-77
2020/12/22 09:59:08;;;;;;;1.75;0.40;;;15.20;99.90;;;;;;6732230;88;20255;-77
2020/12/22 10:09:09;;;;;;;1.00;0.25;;;15.50;99.90;;;;;;6739980;88;20290;-80
2020/12/22 10:19:10;;;;;;;2.25;0.40;;;16.50;99.90;;;;;;6745015;88;20180;-78
2020/12/22 10:29:11;;;;;;;2.20;0.30;;;16.60;99.90;;;;;;6738387;88;20285;-77
2020/12/22 10:39:11;;;;;;;1.70;0.30;;;16.90;99.90;;;;;;6739779;88;20275;-79
2020/12/22 10:49:12;;;;;;;0.60;0.25;;;16.80;99.90;;;;;;6738851;88;20726;-79
2020/12/22 10:59:13;;;;;;;1.92;0.30;;;16.20;99.90;;;;;;6736874;88;20242;-78
2020/12/22 11:09:13;;;;;;;0.70;0.30;;;16.30;99.90;;;;;;6736811;88;20651;-80
2020/12/22 11:19:14;;;;;;;0.45;0.20;;;16.30;99.90;;;;;;6742665;88;20192;-78
2020/12/22 11:29:14;;;;;;;2.78;0.47;;;16.80;99.90;;;;;;6740451;88;20228;-78
2020/12/22 11:39:15;;;;;;;1.60;0.50;;;16.80;99.90;;;;;;6737996;88;20180;-77
2020/12/22 11:49:16;;;;;;;1.42;0.30;;;16.70;99.90;;;;;;6731961;88;20186;-78
2020/12/22 11:59:18;;;;;;;1.45;0.35;;;16.40;99.90;;;;;;6730929;88;20205;-76
2020/12/22 12:09:18;;;;;;;2.53;0.50;;;16.30;99.90;;;;;;6731793;88;20287;-77
2020/12/22 12:19:19;;;;;;;3.60;0.62;;;16.00;99.90;;;;;;6729915;88;20185;-77
2020/12/22 12:29:20;;;;;;;1.15;0.40;;;16.00;99.90;;;;;;6729971;88;20211;-76
2020/12/22 12:39:20;;;;;;;2.43;0.50;;;16.30;99.90;;;;;;6734408;88;20670;-77
2020/12/22 12:49:21;;;;;;;1.00;0.30;;;16.10;99.90;;;;;;6723270;88;20583;-77
2020/12/22 12:59:21;;;;;;;2.50;0.30;;;16.00;99.90;;;;;;6734631;88;20189;-78
2020/12/22 13:09:22;;;;;;;2.47;0.40;;;15.80;99.90;;;;;;6732127;88;20225;-78
2020/12/22 13:19:22;;;;;;;1.80;0.50;;;15.90;99.90;;;;;;6733365;88;20176;-77
2020/12/22 13:29:23;;;;;;;2.17;0.43;;;15.70;99.90;;;;;;6738790;88;20741;-78
2020/12/22 13:39:24;;;;;;;2.45;0.50;;;15.60;99.90;;;;;;6732095;88;20236;-78
2020/12/22 13:49:24;;;;;;;1.13;0.47;;;15.60;99.90;;;;;;6730353;88;20287;-77
2020/12/22 13:59:25;;;;;;;1.98;0.62;;;15.60;99.90;;;;;;6734320;88;21325;-77
2020/12/22 14:09:25;;;;;;;2.92;0.57;;;15.60;99.90;;;;;;6738498;88;20208;-78
2020/12/22 14:19:26;;;;;;;2.53;0.80;;;15.40;99.90;;;;;;6735264;88;20324;-78
2020/12/22 14:29:26;;;;;;;1.97;0.60;;;15.20;99.90;;;;;;6735430;88;20196;-79
2020/12/22 14:39:27;;;;;;;3.08;0.90;;;15.20;99.90;;;;;;6748684;88;20657;-78
2020/12/22 14:49:27;;;;;;;2.72;0.70;;;15.10;99.90;;;;;;6744649;88;20301;-78
2020/12/22 14:59:28;;;;;;;1.73;0.63;;;15.00;99.90;;;;;;6743663;88;20200;-79
2020/12/22 15:09:29;;;;;;;3.60;1.20;;;14.80;99.90;;;;;;6741648;88;20180;-78
2020/12/22 15:19:30;;;;;;;2.85;1.30;;;14.70;99.90;;;;;;6737564;88;20208;-79
2020/12/22 15:29:30;;;;;;;3.78;1.30;;;14.50;99.90;;;;;;6735340;88;20183;-78
2020/12/22 15:39:31;;;;;;;2.92;1.17;;;14.40;99.90;;;;;;6751976;88;20649;-78
2020/12/22 15:49:31;;;;;;;2.83;1.23;;;14.30;99.90;;;;;;6741818;88;20698;-77
2020/12/22 15:59:32;;;;;;;2.78;1.55;;;14.30;99.90;;;;;;6744197;88;20187;-76
2020/12/22 16:09:33;;;;;;;2.62;1.70;;;14.20;99.90;;;;;;6740135;88;20173;-80
2020/12/22 16:19:33;;;;;;;6.15;1.60;;;14.10;99.90;;;;;;6743309;88;20964;-77
2020/12/22 16:29:34;;;;;;;3.03;1.50;;;13.90;99.90;;;;;;6739334;88;20315;-80
2020/12/22 16:39:34;;;;;;;3.75;1.62;;;14.00;99.90;;;;;;6740637;88;20961;-77
2020/12/22 16:49:35;;;;;;;3.92;1.70;;;14.10;99.90;;;;;;6746684;88;20538;-77
2020/12/22 16:59:35;;;;;;;4.47;1.73;;;13.70;99.90;;;;;;6747391;88;20202;-78
2020/12/22 17:09:36;;;;;;;5.87;2.70;;;13.70;99.90;;;;;;6737989;88;20266;-79
2020/12/22 17:19:37;;;;;;;8.32;2.78;;;13.70;99.90;;;;;;6736531;88;20182;-76
2020/12/22 17:29:38;;;;;;;7.35;3.00;;;13.60;99.90;;;;;;6741446;88;20230;-78
2020/12/22 17:39:38;;;;;;;6.03;2.85;;;13.00;99.90;;;;;;6731894;88;20226;-76
2020/12/22 17:49:39;;;;;;;6.57;3.03;;;13.00;99.90;;;;;;6732262;88;20213;-76
2020/12/22 17:59:41;;;;;;;5.05;3.00;;;12.80;99.90;;;;;;6735813;88;20320;-80
2020/12/22 18:09:41;;;;;;;9.00;3.97;;;12.50;99.90;;;;;;6737743;88;20275;-78
2020/12/22 18:19:43;;;;;;;13.93;9.00;;;12.60;99.90;;;;;;6738764;88;20304;-80
2020/12/22 18:29:44;;;;;;;11.80;5.85;;;12.50;99.90;;;;;;6741006;88;20188;-78
2020/12/22 18:39:44;;;;;;;11.77;6.37;;;12.60;99.90;;;;;;6726968;88;20193;-76
2020/12/22 18:49:45;;;;;;;12.82;8.43;;;12.40;99.90;;;;;;6725832;88;20192;-76
2020/12/22 18:59:47;;;;;;;9.10;5.87;;;12.40;99.90;;;;;;6728297;88;20238;-73
2020/12/22 19:09:48;;;;;;;10.93;6.80;;;12.40;99.90;;;;;;6729829;88;20328;-74
2020/12/22 19:19:51;;;;;;;10.43;7.10;;;12.40;99.90;;;;;;6726971;88;20236;-76
2020/12/22 19:29:52;;;;;;;12.70;7.10;;;12.40;99.90;;;;;;6734442;88;20195;-77
2020/12/22 19:39:53;;;;;;;13.35;7.25;;;12.40;99.90;;;;;;6729562;88;20199;-76
2020/12/22 19:49:53;;;;;;;14.20;9.18;;;12.50;99.90;;;;;;6728547;88;20223;-78
2020/12/22 19:59:54;;;;;;;14.95;8.90;;;12.40;99.90;;;;;;6733314;88;20365;-77
2020/12/22 20:09:54;;;;;;;16.70;8.88;;;12.40;99.90;;;;;;6730699;88;20281;-77
2020/12/22 20:19:55;;;;;;;15.93;9.10;;;12.40;99.90;;;;;;6731158;88;20251;-74
2020/12/22 20:29:56;;;;;;;14.65;8.80;;;12.40;99.90;;;;;;6726971;88;21435;-75
2020/12/22 20:39:56;;;;;;;13.77;8.77;;;12.40;99.90;;;;;;6722538;88;20197;-75
2020/12/22 20:49:57;;;;;;;14.70;8.77;;;12.30;99.90;;;;;;6732851;88;20222;-77
2020/12/22 20:59:57;;;;;;;13.80;9.02;;;12.40;99.90;;;;;;6733554;88;20247;-77
2020/12/22 21:09:58;;;;;;;13.90;8.55;;;12.20;99.90;;;;;;6735020;88;20217;-75
2020/12/22 21:19:58;;;;;;;12.75;7.05;;;12.20;99.90;;;;;;6742049;88;20189;-76
2020/12/22 21:29:59;;;;;;;10.73;6.45;;;12.20;99.90;;;;;;6728424;88;20215;-76
2020/12/22 21:39:59;;;;;;;16.80;8.37;;;12.10;99.90;;;;;;6724487;88;20193;-76
2020/12/22 21:50:00;;;;;;;11.55;6.35;;;12.20;99.90;;;;;;6731727;88;21016;-76
2020/12/22 22:00:03;;;;;;;9.52;5.50;;;12.10;99.90;;;;;;6730867;88;20387;-76
2020/12/22 22:10:03;;;;;;;10.55;6.57;;;12.00;99.90;;;;;;6725538;88;20213;-74
2020/12/22 22:20:04;;;;;;;10.35;5.12;;;12.10;99.90;;;;;;6730206;88;20317;-76
2020/12/22 22:30:05;;;;;;;6.82;4.40;;;12.00;99.90;;;;;;6732588;88;20243;-76
2020/12/22 22:40:06;;;;;;;6.50;3.58;;;12.20;99.90;;;;;;6731013;88;20296;-77
2020/12/22 22:50:06;;;;;;;4.80;2.60;;;12.10;99.90;;;;;;6730436;88;20206;-75
2020/12/22 23:00:10;;;;;;;4.97;2.47;;;12.10;99.90;;;;;;6732975;88;20179;-76
2020/12/22 23:10:11;;;;;;;6.40;3.67;;;12.00;99.90;;;;;;6731339;88;20523;-77
2020/12/22 23:20:11;;;;;;;7.80;3.85;;;12.10;99.90;;;;;;6729098;88;20663;-77
2020/12/22 23:30:12;;;;;;;7.20;3.92;;;12.00;99.90;;;;;;6731120;88;20716;-76
2020/12/22 23:40:13;;;;;;;4.05;2.58;;;12.00;99.90;;;;;;6723049;88;20208;-77
2020/12/22 23:50:13;;;;;;;4.80;3.28;;;12.00;99.90;;;;;;6725907;88;20237;-77
